Archiv-/Tagesdaten

--Timestamp---	Temp	Chill	HIndex	Humid	Dewpt	Wind	HiWind	WindDir	Rain	Barom	        Solar	ET	UV
--------------	----	-----	------	-----	-----	----	------	-------	----	-----	        -----	--	--
20090409 00:05	10.8	10.8	10.8	72	5.9	3	10	202	0.00	1016.529	0	0.000	0
20090409 00:10	10.7	10.7	10.7	72	5.8	0	5	180	0.00	1016.529	0	0.000	0
20090409 00:15	10.4	10.4	10.4	73	5.8	0	3	180	0.00	1016.495	0	0.000	0
20090409 00:20	10.2	10.2	10.2	74	5.8	2	5	180	0.00	1016.631	0	0.000	0
20090409 00:25	10.1	10.1	10.1	75	5.9	3	8	180	0.00	1016.631	0	0.000	0
20090409 00:30	10.1	10.1	10.1	75	5.8	0	5	180	0.00	1016.664	0	0.000	0
20090409 00:35	10.0	10.0	10.0	76	6.0	2	5	180	0.00	1016.766	0	0.000	0
20090409 00:40	9.9	9.9	9.9	76	5.9	2	8	180	0.00	1016.800	0	0.000	0
20090409 00:45	9.8	9.8	9.8	76	5.8	2	6	180	0.00	1016.766	0	0.000	0
20090409 00:50	9.8	9.8	9.8	77	5.9	2	8	202	0.00	1016.800	0	0.000	0
20090409 00:55	9.7	9.7	9.7	77	5.8	2	6	202	0.00	1016.901	0	0.000	0
20090409 01:00	9.6	9.6	9.6	78	5.9	3	8	202	0.00	1016.901	0	0.020	0
20090409 01:05	9.4	9.4	9.4	78	5.8	3	10	202	0.00	1016.732	0	0.000	0
20090409 01:10	9.4	9.4	9.4	79	5.9	3	8	202	0.00	1016.664	0	0.000	0
20090409 01:15	9.3	9.3	9.3	79	5.9	3	6	202	0.00	1016.698	0	0.000	0
20090409 01:20	9.3	9.3	9.3	79	5.8	3	10	202	0.00	1016.664	0	0.000	0
20090409 01:25	9.2	9.2	9.2	79	5.8	3	10	202	0.00	1016.698	0	0.000	0
20090409 01:30	9.2	9.2	9.2	79	5.7	3	8	202	0.00	1016.732	0	0.000	0
20090409 01:35	9.2	9.2	9.2	79	5.7	3	11	202	0.00	1016.698	0	0.000	0
20090409 01:40	9.1	9.1	9.1	79	5.7	3	11	202	0.00	1016.834	0	0.000	0
20090409 01:45	9.1	9.1	9.1	79	5.6	3	14	202	0.00	1016.766	0	0.000	0
20090409 01:50	9.0	9.0	9.0	79	5.6	2	6	180	0.00	1016.834	0	0.000	0
20090409 01:55	9.0	9.0	9.0	79	5.6	3	10	180	0.00	1016.901	0	0.000	0
20090409 02:00	8.9	8.9	8.9	80	5.7	3	11	202	0.00	1016.800	0	0.020	0
20090409 02:05	8.9	8.9	8.9	80	5.7	3	14	202	0.00	1016.732	0	0.000	0
20090409 02:10	8.9	8.9	8.9	80	5.6	3	10	202	0.00	1016.732	0	0.000	0
20090409 02:15	8.8	8.8	8.8	80	5.5	2	10	202	0.00	1016.766	0	0.000	0
20090409 02:20	8.7	8.7	8.7	80	5.5	3	10	202	0.00	1016.800	0	0.000	0
20090409 02:25	8.6	8.6	8.6	80	5.4	2	8	202	0.00	1016.766	0	0.000	0
20090409 02:30	8.5	8.5	8.5	81	5.4	3	8	202	0.00	1016.834	0	0.000	0
20090409 02:35	8.4	8.4	8.4	81	5.4	3	8	180	0.00	1016.834	0	0.000	0
20090409 02:40	8.4	8.4	8.4	81	5.3	2	5	202	0.00	1016.834	0	0.000	0
20090409 02:45	8.3	8.3	8.3	81	5.3	3	8	202	0.00	1016.834	0	0.000	0
20090409 02:50	8.3	8.3	8.3	81	5.2	3	8	202	0.00	1016.834	0	0.000	0
20090409 02:55	8.2	8.2	8.2	81	5.2	3	8	202	0.00	1016.800	0	0.000	0
20090409 03:00	8.2	8.2	8.2	81	5.1	3	8	180	0.00	1016.766	0	0.020	0
20090409 03:05	8.1	8.1	8.1	81	5.0	3	8	202	0.00	1016.664	0	0.000	0
20090409 03:10	8.0	8.0	8.0	82	5.1	2	6	202	0.00	1016.800	0	0.000	0
20090409 03:15	7.9	7.9	7.9	82	5.1	2	6	225	0.00	1016.800	0	0.000	0
20090409 03:20	7.8	7.8	7.8	82	5.0	2	6	225	0.00	1016.766	0	0.000	0
20090409 03:25	7.8	7.8	7.8	82	4.9	2	6	225	0.00	1016.868	0	0.000	0
20090409 03:30	7.7	7.7	7.7	82	4.8	0	5	225	0.00	1016.901	0	0.000	0
20090409 03:35	7.6	7.6	7.6	82	4.7	0	3	225	0.00	1016.935	0	0.000	0
20090409 03:40	7.6	7.6	7.6	82	4.7	0	3	225	0.00	1016.969	0	0.000	0
20090409 03:45	7.6	7.6	7.6	83	4.9	0	3	225	0.00	1017.003	0	0.000	0
20090409 03:50	7.6	7.6	7.6	83	4.9	0	3	225	0.00	1016.969	0	0.000	0
20090409 03:55	7.5	7.5	7.5	83	4.8	0	3	225	0.00	1017.003	0	0.000	0
20090409 04:00	7.4	7.4	7.4	83	4.7	0	2	225	0.00	1016.969	0	0.020	0
20090409 04:05	7.3	7.3	7.3	83	4.6	0	0	225	0.00	1017.172	0	0.000	0
20090409 04:10	7.2	7.2	7.2	83	4.5	0	2	225	0.00	1017.206	0	0.000	0
20090409 04:15	7.2	7.2	7.2	84	4.7	0	3	225	0.00	1017.206	0	0.000	0
20090409 04:20	7.2	7.2	7.2	84	4.7	0	3	225	0.00	1017.206	0	0.000	0
20090409 04:25	7.2	7.2	7.2	84	4.7	2	5	225	0.00	1017.240	0	0.000	0
20090409 04:30	7.2	7.2	7.2	84	4.7	3	6	225	0.00	1017.206	0	0.000	0
20090409 04:35	7.3	7.3	7.3	84	4.8	3	6	202	0.00	1017.274	0	0.000	0
20090409 04:40	7.3	7.3	7.3	83	4.6	0	5	202	0.00	1017.240	0	0.000	0
20090409 04:45	7.3	7.3	7.3	83	4.6	0	5	202	0.00	1017.308	0	0.000	0
20090409 04:50	7.2	7.2	7.2	83	4.5	0	5	202	0.00	1017.308	0	0.000	0
20090409 04:55	7.2	7.2	7.2	84	4.7	0	5	202	0.00	1017.376	0	0.000	0
20090409 05:00	7.2	7.2	7.2	84	4.6	0	5	202	0.00	1017.342	0	0.000	0
20090409 05:05	7.2	7.2	7.2	84	4.6	2	6	202	0.00	1017.376	0	0.000	0
20090409 05:10	7.2	7.2	7.2	84	4.7	2	5	202	0.00	1017.342	0	0.000	0
20090409 05:15	7.2	7.2	7.2	83	4.5	2	5	202	0.00	1017.342	0	0.000	0
20090409 05:20	7.2	7.2	7.2	83	4.5	2	5	202	0.00	1017.342	0	0.000	0
20090409 05:25	7.2	7.2	7.2	83	4.5	0	6	202	0.00	1017.409	0	0.000	0
20090409 05:30	7.2	7.2	7.2	83	4.5	2	5	202	0.00	1017.477	0	0.000	0
20090409 05:35	7.1	7.1	7.1	83	4.4	2	5	202	0.00	1017.409	0	0.000	0
20090409 05:40	7.0	7.0	7.0	83	4.3	2	6	202	0.00	1017.511	0	0.000	0
20090409 05:45	6.9	6.9	6.9	83	4.3	2	6	202	0.00	1017.545	0	0.000	0
20090409 05:50	6.9	6.9	6.9	84	4.4	3	6	202	0.00	1017.647	0	0.000	0
20090409 05:55	6.8	6.8	6.8	84	4.3	3	8	202	0.00	1017.680	0	0.000	0
20090409 06:00	6.8	6.8	6.8	84	4.3	3	8	202	0.00	1017.647	0	0.000	0
20090409 06:05	6.7	6.7	6.7	84	4.2	3	6	202	0.00	1017.748	0	0.000	0
20090409 06:10	6.6	6.6	6.6	84	4.1	3	6	202	0.00	1017.816	0	0.000	0
20090409 06:15	6.6	6.6	6.6	84	4.0	3	6	180	0.00	1017.850	0	0.000	0
20090409 06:20	6.5	6.5	6.5	84	4.0	3	6	180	0.00	1017.850	0	0.000	0
20090409 06:25	6.4	6.4	6.4	84	3.9	2	5	180	0.00	1017.850	0	0.000	0
20090409 06:30	6.4	6.4	6.4	85	4.1	0	0	180	0.00	1017.917	0	0.000	0
20090409 06:35	6.4	6.4	6.4	84	3.9	0	3	180	0.00	1017.917	0	0.000	0
20090409 06:40	6.4	6.4	6.4	84	3.9	2	6	180	0.00	1017.884	1	0.000	0
20090409 06:45	6.4	6.4	6.4	85	4.1	3	8	202	0.00	1017.917	6	0.000	0
20090409 06:50	6.5	6.5	6.5	84	4.0	5	10	202	0.00	1017.884	10	0.000	0
20090409 06:55	6.5	6.5	6.5	84	4.0	2	6	180	0.00	1017.917	14	0.000	0
20090409 07:00	6.5	6.5	6.5	84	4.0	2	10	202	0.00	1017.917	18	0.000	0
20090409 07:05	6.4	6.4	6.4	84	3.9	0	3	180	0.00	1018.087	22	0.000	0
20090409 07:10	6.4	6.4	6.4	84	3.9	0	2	180	0.00	1018.121	26	0.000	0
20090409 07:15	6.4	6.4	6.4	84	3.9	0	3	180	0.00	1018.087	32	0.000	0
20090409 07:20	6.4	6.4	6.4	84	3.9	0	3	180	0.00	1018.121	37	0.000	0
20090409 07:25	6.4	6.4	6.4	84	3.9	0	3	180	0.00	1018.154	41	0.000	0
20090409 07:30	6.4	6.4	6.4	84	3.9	0	2	157	0.00	1018.087	46	0.000	0
20090409 07:35	6.6	6.6	6.6	84	4.0	0	2	157	0.00	1018.154	49	0.000	0
20090409 07:40	6.7	6.7	6.7	84	4.2	0	2	157	0.00	1018.154	53	0.000	0
20090409 07:45	6.8	6.8	6.8	84	4.3	0	3	157	0.00	1018.188	56	0.000	0
20090409 07:50	6.9	6.9	6.9	84	4.4	0	3	157	0.00	1018.188	61	0.000	0
20090409 07:55	7.1	7.1	7.1	83	4.4	0	5	157	0.00	1018.087	85	0.000	0
20090409 08:00	7.3	7.3	7.3	82	4.4	2	6	225	0.00	1018.121	113	0.020	0
20090409 08:05	7.5	7.5	7.5	82	4.6	3	8	225	0.00	1018.188	148	0.000	0
20090409 08:10	7.7	7.7	7.7	81	4.7	3	6	202	0.00	1018.256	167	0.000	0
20090409 08:15	8.0	8.0	8.0	81	4.9	3	8	180	0.00	1018.290	182	0.000	0
20090409 08:20	8.3	8.3	8.3	80	5.0	3	8	202	0.00	1018.121	192	0.000	0
20090409 08:25	8.6	8.6	8.6	80	5.3	0	5	202	0.00	1018.188	199	0.000	0
20090409 08:30	8.8	8.8	8.8	79	5.4	3	8	202	0.00	1018.087	216	0.000	1
20090409 08:35	9.1	9.1	9.1	78	5.5	2	6	202	0.00	1018.121	232	0.000	1
20090409 08:40	9.3	9.3	9.3	77	5.5	2	6	202	0.00	1018.019	241	0.000	1
20090409 08:45	9.5	9.5	9.5	78	5.9	5	10	202	0.00	1018.121	245	0.000	1
20090409 08:50	9.6	9.6	9.6	77	5.7	3	8	202	0.00	1018.188	245	0.000	1
20090409 08:55	9.7	9.7	9.7	78	6.0	3	8	202	0.00	1018.154	115	0.000	1
20090409 09:00	9.9	9.9	9.9	77	6.0	2	6	202	0.00	1018.188	102	0.080	1
20090409 09:05	10.1	10.1	10.1	77	6.2	0	6	225	0.00	1018.222	102	0.000	1
20090409 09:10	10.3	10.3	10.3	76	6.2	0	5	225	0.00	1018.188	104	0.000	1
20090409 09:15	10.5	10.5	10.5	75	6.3	0	5	225	0.00	1018.087	105	0.000	1
20090409 09:20	10.7	10.7	10.7	74	6.2	0	0	225	0.00	1018.222	107	0.000	1
20090409 09:25	10.9	10.9	10.9	74	6.5	0	3	225	0.00	1018.188	109	0.000	1
20090409 09:30	11.1	11.1	11.1	73	6.5	0	2	225	0.00	1018.188	111	0.000	1
20090409 09:35	11.4	11.4	11.4	71	6.3	0	2	225	0.00	1018.256	111	0.000	1
20090409 09:40	11.6	11.6	11.6	71	6.5	0	3	225	0.00	1018.087	111	0.000	1
20090409 09:45	11.8	11.8	11.8	70	6.5	2	5	225	0.00	1018.053	112	0.000	1
20090409 09:50	12.0	12.0	12.0	71	6.9	0	3	45	0.00	1018.053	116	0.000	1
20090409 09:55	12.2	12.2	12.2	69	6.6	0	5	135	0.00	1018.121	121	0.000	2
20090409 10:00	12.3	12.3	12.3	68	6.6	2	5	135	0.00	1018.087	126	0.040	2
20090409 10:05	12.5	12.5	12.5	68	6.8	2	6	67	0.00	1018.087	128	0.000	2
20090409 10:10	12.7	12.7	12.7	67	6.7	2	6	45	0.00	1018.121	130	0.000	2
20090409 10:15	12.9	12.9	12.9	64	6.2	3	10	45	0.00	1018.121	134	0.000	2
20090409 10:20	13.2	13.2	13.2	63	6.3	5	8	45	0.00	1017.985	137	0.000	2
20090409 10:25	13.4	13.4	13.4	62	6.3	3	8	45	0.00	1018.019	139	0.000	2
20090409 10:30	13.6	13.6	13.6	60	6.0	5	8	45	0.00	1018.019	142	0.000	2
20090409 10:35	13.8	13.8	13.8	60	6.1	6	10	67	0.00	1017.985	146	0.000	2
20090409 10:40	13.8	13.8	13.8	60	6.2	6	11	45	0.00	1017.951	148	0.000	2
20090409 10:45	14.1	14.1	14.1	59	6.2	5	10	45	0.00	1017.917	152	0.000	2
20090409 10:50	14.3	14.3	14.3	59	6.4	5	8	45	0.00	1017.748	160	0.000	2
20090409 10:55	14.3	14.3	14.3	59	6.4	6	10	67	0.00	1017.748	186	0.000	2
20090409 11:00	14.3	14.3	14.3	60	6.6	6	10	67	0.00	1017.748	534	0.080	2
20090409 11:05	14.3	14.3	14.3	61	6.9	5	11	90	0.00	1017.816	451	0.000	3
20090409 11:10	14.4	14.4	14.4	60	6.8	3	10	90	0.00	1017.782	527	0.000	3
20090409 11:15	14.6	14.6	14.6	61	7.1	3	10	67	0.00	1017.748	575	0.000	3
20090409 11:20	14.8	14.8	14.8	60	7.1	5	11	67	0.00	1017.680	545	0.000	3
20090409 11:25	15.0	15.0	15.0	59	7.0	3	10	90	0.00	1017.647	581	0.000	4
20090409 11:30	15.0	15.0	15.0	59	7.0	3	10	45	0.00	1017.579	623	0.000	4
20090409 11:35	15.1	15.1	15.1	59	7.1	6	10	67	0.00	1017.545	614	0.000	4
20090409 11:40	15.2	15.2	15.2	58	7.0	3	6	67	0.00	1017.511	622	0.000	4
20090409 11:45	15.6	15.6	15.6	57	7.1	5	13	135	0.00	1017.274	600	0.000	4
20090409 11:50	15.8	15.8	15.8	57	7.3	3	10	67	0.00	1017.274	591	0.000	4
20090409 11:55	15.9	15.9	15.9	56	7.1	3	10	112	0.00	1017.240	579	0.000	4
20090409 12:00	15.7	15.7	15.7	55	6.6	6	10	67	0.00	1017.240	616	0.260	4
20090409 12:05	15.8	15.8	15.8	55	6.8	5	11	135	0.00	1017.342	603	0.000	4
20090409 12:10	16.0	16.0	16.0	57	7.5	5	10	67	0.00	1017.274	615	0.000	4
20090409 12:15	16.1	16.1	16.1	55	7.0	5	8	90	0.00	1017.206	583	0.000	4
20090409 12:20	16.2	16.2	16.2	55	7.1	3	11	90	0.00	1017.071	577	0.000	4
20090409 12:25	16.4	16.4	16.4	54	7.1	5	10	67	0.00	1017.105	637	0.000	4
20090409 12:30	16.3	16.3	16.3	53	6.7	5	14	67	0.00	1017.071	672	0.000	5
20090409 12:35	16.2	16.2	16.2	54	6.8	6	10	67	0.00	1016.969	684	0.000	5
20090409 12:40	16.4	16.4	16.4	55	7.3	5	11	90	0.00	1016.901	670	0.000	5
20090409 12:45	16.5	16.5	16.5	53	6.9	6	11	67	0.00	1016.868	666	0.000	5
20090409 12:50	16.4	16.4	16.4	54	7.1	5	11	67	0.00	1016.800	679	0.000	5
20090409 12:55	16.6	16.6	16.6	55	7.5	5	14	45	0.00	1016.631	700	0.000	5
20090409 13:00	16.8	16.8	16.8	53	7.2	6	14	67	0.00	1016.563	706	0.300	5
20090409 13:05	17.0	17.0	17.0	52	7.1	5	11	135	0.00	1016.461	725	0.000	5
20090409 13:10	17.2	17.2	17.2	51	7.0	8	16	45	0.00	1016.394	760	0.000	5
20090409 13:15	17.2	17.2	17.2	51	6.9	6	14	67	0.00	1016.258	762	0.000	5
20090409 13:20	17.3	17.3	17.3	53	7.7	10	16	45	0.00	1016.258	764	0.000	5
20090409 13:25	17.3	17.3	17.3	52	7.4	6	13	67	0.00	1016.123	766	0.000	5
20090409 13:30	17.6	17.6	17.6	52	7.6	8	19	67	0.00	1015.886	764	0.000	5
20090409 13:35	17.6	17.6	17.6	52	7.6	5	13	45	0.00	1015.852	753	0.000	5
20090409 13:40	17.6	17.6	17.6	52	7.6	6	18	67	0.00	1015.750	749	0.000	5
20090409 13:45	18.1	18.1	18.1	49	7.2	8	16	112	0.00	1015.682	757	0.000	5
20090409 13:50	18.2	18.2	18.2	48	7.0	5	10	135	0.00	1015.513	738	0.000	5
20090409 13:55	18.1	18.1	18.1	51	7.8	5	14	90	0.00	1015.445	742	0.000	5
20090409 14:00	18.3	18.3	18.3	49	7.4	6	14	67	0.00	1015.411	736	0.360	5
20090409 14:05	18.4	18.4	18.4	48	7.2	5	10	90	0.00	1015.310	730	0.000	5
20090409 14:10	18.4	18.4	18.4	50	7.8	5	11	67	0.00	1015.276	725	0.000	5
20090409 14:15	18.3	18.3	18.3	49	7.4	6	14	67	0.00	1015.141	709	0.000	5
20090409 14:20	18.6	18.6	18.6	49	7.6	5	11	112	0.00	1015.107	713	0.000	5
20090409 14:25	18.5	18.5	18.5	50	7.9	5	11	45	0.00	1014.937	722	0.000	5
20090409 14:30	18.7	18.7	18.7	47	7.1	8	16	112	0.00	1014.904	708	0.000	4
20090409 14:35	18.5	18.5	18.5	48	7.3	8	14	45	0.00	1014.836	701	0.000	4
20090409 14:40	18.7	18.7	18.7	48	7.4	6	16	112	0.00	1014.802	695	0.000	4
20090409 14:45	18.6	18.6	18.6	49	7.7	8	16	67	0.00	1014.734	665	0.000	4
20090409 14:50	18.7	18.7	18.7	48	7.4	5	10	45	0.00	1014.599	677	0.000	4
20090409 14:55	18.9	18.9	18.9	47	7.4	8	21	90	0.00	1014.497	671	0.000	4
20090409 15:00	18.9	18.9	18.9	47	7.3	8	16	90	0.00	1014.362	669	0.340	4
20090409 15:05	18.7	18.7	18.7	47	7.2	10	18	67	0.00	1014.497	664	0.000	4
20090409 15:10	18.7	18.7	18.7	48	7.4	6	14	67	0.00	1014.429	649	0.000	4
20090409 15:15	18.9	18.9	18.9	48	7.7	6	14	90	0.00	1014.429	653	0.000	4
20090409 15:20	18.9	18.9	18.9	47	7.3	8	14	67	0.00	1014.362	635	0.000	4
20090409 15:25	19.0	19.0	19.0	48	7.7	8	18	67	0.00	1014.226	616	0.000	3
20090409 15:30	19.2	19.2	19.2	46	7.3	13	21	112	0.00	1014.023	620	0.000	3
20090409 15:35	19.2	19.2	19.2	47	7.6	6	16	90	0.00	1013.989	611	0.000	3
20090409 15:40	19.1	19.1	19.1	48	7.8	6	16	67	0.00	1014.023	604	0.000	3
20090409 15:45	19.2	19.2	19.2	46	7.3	8	19	67	0.00	1013.820	590	0.000	3
20090409 15:50	19.3	19.3	19.3	46	7.4	6	18	135	0.00	1013.617	568	0.000	3
20090409 15:55	19.5	19.5	19.5	47	7.9	8	24	67	0.00	1013.583	547	0.000	3
20090409 16:00	19.6	19.6	19.6	46	7.6	8	18	112	0.00	1013.617	547	0.320	3
20090409 16:05	19.6	19.6	19.6	45	7.3	6	14	90	0.00	1013.515	537	0.000	3
20090409 16:10	19.3	19.3	19.3	45	7.0	3	16	90	0.00	1013.447	490	0.000	2
20090409 16:15	19.4	19.4	19.4	45	7.1	8	19	112	0.00	1013.380	495	0.000	2
20090409 16:20	19.4	19.4	19.4	46	7.5	8	18	112	0.00	1013.380	400	0.000	2
20090409 16:25	19.5	19.5	19.5	46	7.6	6	16	112	0.00	1013.346	385	0.000	2
20090409 16:30	19.4	19.4	19.4	46	7.5	6	16	90	0.00	1013.278	347	0.000	2
20090409 16:35	19.4	19.4	19.4	46	7.5	6	16	90	0.00	1013.210	334	0.000	2
20090409 16:40	19.4	19.4	19.4	45	7.1	11	19	112	0.00	1013.177	354	0.000	2
20090409 16:45	19.4	19.4	19.4	46	7.5	6	19	112	0.00	1013.075	358	0.000	2
20090409 16:50	19.3	19.3	19.3	47	7.7	6	11	112	0.00	1013.210	369	0.000	2
20090409 16:55	19.4	19.4	19.4	47	7.8	5	11	67	0.00	1013.177	322	0.000	2
20090409 17:00	19.3	19.3	19.3	48	8.0	5	10	45	0.00	1013.075	281	0.220	1
20090409 17:05	19.4	19.4	19.4	47	7.8	6	11	112	0.00	1013.312	258	0.000	1
20090409 17:10	19.3	19.3	19.3	46	7.4	5	11	67	0.00	1013.278	225	0.000	1
20090409 17:15	19.3	19.3	19.3	47	7.7	5	13	112	0.00	1013.244	196	0.000	1
20090409 17:20	19.3	19.3	19.3	47	7.7	5	13	112	0.00	1013.143	195	0.000	1
20090409 17:25	19.3	19.3	19.3	47	7.7	8	18	112	0.00	1013.143	167	0.000	1
20090409 17:30	19.4	19.4	19.4	47	7.8	5	11	112	0.00	1013.109	216	0.000	1
20090409 17:35	19.4	19.4	19.4	47	7.8	5	10	90	0.00	1013.075	213	0.000	1
20090409 17:40	19.3	19.3	19.3	46	7.4	5	8	90	0.00	1013.007	258	0.000	1
20090409 17:45	19.3	19.3	19.3	46	7.4	3	8	67	0.00	1013.075	241	0.000	1
20090409 17:50	19.3	19.3	19.3	47	7.7	5	11	90	0.00	1013.007	241	0.000	1
20090409 17:55	19.3	19.3	19.3	47	7.7	5	10	90	0.00	1012.939	227	0.000	1
20090409 18:00	19.2	19.2	19.2	47	7.6	5	11	112	0.00	1013.041	216	0.140	1
20090409 18:05	19.3	19.3	19.3	47	7.7	3	8	135	0.00	1013.007	199	0.000	0
20090409 18:10	19.2	19.2	19.2	47	7.6	3	6	90	0.00	1013.007	185	0.000	0
20090409 18:15	19.1	19.1	19.1	47	7.5	2	6	90	0.00	1012.973	171	0.000	0
20090409 18:20	19.0	19.0	19.0	48	7.7	3	6	67	0.00	1012.906	159	0.000	0
20090409 18:25	18.9	18.9	18.9	48	7.7	3	11	67	0.00	1012.939	148	0.000	0
20090409 18:30	18.8	18.8	18.8	49	7.9	3	6	112	0.00	1012.906	136	0.000	0
20090409 18:35	18.8	18.8	18.8	49	7.8	3	8	90	0.00	1012.838	121	0.000	0
20090409 18:40	18.7	18.7	18.7	49	7.8	5	11	112	0.00	1012.804	107	0.000	0
20090409 18:45	18.6	18.6	18.6	49	7.7	2	6	90	0.00	1012.736	78	0.000	0
20090409 18:50	18.4	18.4	18.4	50	7.8	2	6	90	0.00	1012.906	59	0.000	0
20090409 18:55	18.3	18.3	18.3	51	8.0	3	6	90	0.00	1012.872	54	0.000	0
20090409 19:00	18.2	18.2	18.2	51	7.9	3	6	90	0.00	1012.973	50	0.080	0
20090409 19:05	18.0	18.0	18.0	53	8.3	2	6	90	0.00	1012.973	47	0.000	0
20090409 19:10	17.8	17.8	17.8	53	8.1	2	3	67	0.00	1012.838	43	0.000	0
20090409 19:15	17.7	17.7	17.7	54	8.2	2	5	67	0.00	1012.872	39	0.000	0
20090409 19:20	17.5	17.5	17.5	55	8.4	0	3	67	0.00	1012.838	34	0.000	0
20090409 19:25	17.3	17.3	17.3	56	8.5	2	3	67	0.00	1012.872	30	0.000	0
20090409 19:30	17.2	17.2	17.2	56	8.3	2	3	67	0.00	1012.838	25	0.000	0
20090409 19:35	17.0	17.0	17.0	58	8.7	2	5	90	0.00	1012.872	21	0.000	0
20090409 19:40	16.8	16.8	16.8	58	8.5	0	3	90	0.00	1012.973	16	0.000	0
20090409 19:45	16.7	16.7	16.7	59	8.6	0	2	90	0.00	1012.973	12	0.000	0
20090409 19:50	16.5	16.5	16.5	59	8.5	2	3	90	0.00	1013.007	8	0.000	0
20090409 19:55	16.3	16.3	16.3	59	8.3	2	5	90	0.00	1013.007	3	0.000	0
20090409 20:00	16.2	16.2	16.2	60	8.4	2	3	90	0.00	1013.041	0	0.020	0
20090409 20:05	15.9	15.9	15.9	60	8.2	2	5	67	0.00	1012.838	0	0.000	0
20090409 20:10	15.7	15.7	15.7	61	8.2	2	5	67	0.00	1012.872	0	0.000	0
20090409 20:15	15.5	15.5	15.5	61	8.0	0	3	67	0.00	1012.804	0	0.000	0
20090409 20:20	15.3	15.3	15.3	62	8.1	2	3	67	0.00	1012.804	0	0.000	0
20090409 20:25	15.2	15.2	15.2	62	7.9	2	3	67	0.00	1013.007	0	0.000	0
20090409 20:30	15.0	15.0	15.0	63	8.0	0	3	67	0.00	1013.041	0	0.000	0
20090409 20:35	15.0	15.0	15.0	63	8.0	0	2	67	0.00	1013.109	0	0.000	0
20090409 20:40	14.8	14.8	14.8	64	8.1	0	2	67	0.00	1013.109	0	0.000	0
20090409 20:45	14.7	14.7	14.7	64	8.0	0	2	67	0.00	1013.109	0	0.000	0
20090409 20:50	14.5	14.5	14.5	65	8.0	0	2	67	0.00	1013.177	0	0.000	0
20090409 20:55	14.3	14.3	14.3	65	7.8	0	3	67	0.00	1013.143	0	0.000	0
20090409 21:00	14.3	14.3	14.3	66	8.0	0	3	67	0.00	1013.143	0	0.000	0
20090409 21:05	14.2	14.2	14.2	66	8.0	0	2	67	0.00	1012.973	0	0.000	0
20090409 21:10	14.1	14.1	14.1	66	7.9	2	3	67	0.00	1013.143	0	0.000	0
20090409 21:15	14.1	14.1	14.1	66	7.8	0	3	67	0.00	1013.109	0	0.000	0
20090409 21:20	14.1	14.1	14.1	67	8.0	2	3	67	0.00	1013.109	0	0.000	0
20090409 21:25	13.9	13.9	13.9	67	7.9	2	5	67	0.00	1013.075	0	0.000	0
20090409 21:30	13.9	13.9	13.9	67	7.9	2	5	67	0.00	1013.075	0	0.000	0
20090409 21:35	13.8	13.8	13.8	67	7.8	2	5	67	0.00	1013.041	0	0.000	0
20090409 21:40	13.7	13.7	13.7	68	7.9	0	3	67	0.00	1013.007	0	0.000	0
20090409 21:45	13.6	13.6	13.6	68	7.8	2	3	67	0.00	1012.872	0	0.000	0
20090409 21:50	13.4	13.4	13.4	68	7.7	2	3	90	0.00	1012.906	0	0.000	0
20090409 21:55	13.4	13.4	13.4	68	7.7	2	5	90	0.00	1012.906	0	0.000	0
20090409 22:00	13.4	13.4	13.4	68	7.7	2	3	90	0.00	1012.906	0	0.020	0
20090409 22:05	13.4	13.4	13.4	68	7.7	2	3	90	0.00	1012.669	0	0.000	0
20090409 22:10	13.4	13.4	13.4	68	7.6	2	3	90	0.00	1012.601	0	0.000	0
20090409 22:15	13.3	13.3	13.3	69	7.7	2	3	90	0.00	1012.567	0	0.000	0
20090409 22:20	13.2	13.2	13.2	69	7.6	2	3	90	0.00	1012.499	0	0.000	0
20090409 22:25	13.0	13.0	13.0	70	7.7	0	3	90	0.00	1012.533	0	0.000	0
20090409 22:30	12.9	12.9	12.9	70	7.5	0	3	90	0.00	1012.635	0	0.000	0
20090409 22:35	12.8	12.8	12.8	70	7.4	0	3	90	0.00	1012.499	0	0.000	0
20090409 22:40	12.6	12.6	12.6	71	7.5	0	2	90	0.00	1012.465	0	0.000	0
20090409 22:45	12.5	12.5	12.5	71	7.4	0	2	90	0.00	1012.465	0	0.000	0
20090409 22:50	12.3	12.3	12.3	72	7.4	0	0	90	0.00	1012.465	0	0.000	0
20090409 22:55	12.3	12.3	12.3	72	7.4	0	0	90	0.00	1012.398	0	0.000	0
20090409 23:00	12.2	12.2	12.2	72	7.3	0	0	90	0.00	1012.431	0	0.020	0
20090409 23:05	12.0	12.0	12.0	73	7.3	0	0	90	0.00	1012.262	0	0.000	0
20090409 23:10	11.8	11.8	11.8	73	7.1	0	0	90	0.00	1012.431	0	0.000	0
20090409 23:15	11.6	11.6	11.6	74	7.1	0	0	90	0.00	1012.431	0	0.000	0
20090409 23:20	11.4	11.4	11.4	75	7.1	0	0	90	0.00	1012.398	0	0.000	0
20090409 23:25	11.3	11.3	11.3	75	7.0	0	0	90	0.00	1012.398	0	0.000	0
20090409 23:30	11.1	11.1	11.1	76	7.0	0	0	90	0.00	1012.364	0	0.000	0
20090409 23:35	10.9	10.9	10.9	76	6.9	0	0	90	0.00	1012.364	0	0.000	0
20090409 23:40	10.8	10.8	10.8	76	6.7	0	0	90	0.00	1012.330	0	0.000	0
20090409 23:45	10.6	10.6	10.6	77	6.7	0	0	90	0.00	1012.398	0	0.000	0
20090409 23:50	10.5	10.5	10.5	78	6.8	2	3	90	0.00	1012.398	0	0.000	0
20090409 23:55	10.4	10.4	10.4	78	6.8	0	0	90	0.00	1012.364	0	0.000	0
20090409 24:00	10.4	10.4	10.4	78	6.8	0	0	90	0.00	1012.296	0	0.020	0



Please note the license to use and transfer of this data:
http://creativecommons.org/licenses/by-nc-sa/3.0/deed.en

Bitte beachten sie die Lizenz zur Verwertung und Weitergabe der Daten:
http://creativecommons.org/licenses/by-nc-sa/3.0/deed.de

zurück zur Übersicht der Archivdaten (Monats und Tagesdaten)

Cookies helfen bei der Bereitstellung von Inhalten. Durch die Nutzung dieser Seiten erklärst du dich damit einverstanden, dass Cookies auf deinem Rechner gespeichert werden. Weitere Information